sensor_id;sensor_type;location;lat;lon;timestamp;P1;durP1;ratioP1;P2;durP2;ratioP2
9823;SDS011;4951;50.778;7.196;2023-07-31T00:01:36;6.00;;;3.55;;
9823;SDS011;4951;50.778;7.196;2023-07-31T00:04:06;5.03;;;3.10;;
9823;SDS011;4951;50.778;7.196;2023-07-31T00:06:35;5.17;;;2.90;;
9823;SDS011;4951;50.778;7.196;2023-07-31T00:09:02;5.75;;;3.30;;
9823;SDS011;4951;50.778;7.196;2023-07-31T00:11:29;4.67;;;3.20;;
9823;SDS011;4951;50.778;7.196;2023-07-31T00:13:58;5.03;;;3.17;;
9823;SDS011;4951;50.778;7.196;2023-07-31T00:16:28;5.67;;;3.23;;
9823;SDS011;4951;50.778;7.196;2023-07-31T00:18:56;3.40;;;3.10;;
9823;SDS011;4951;50.778;7.196;2023-07-31T00:21:23;4.43;;;3.23;;
9823;SDS011;4951;50.778;7.196;2023-07-31T00:23:50;6.90;;;3.70;;
9823;SDS011;4951;50.778;7.196;2023-07-31T00:26:18;5.30;;;3.10;;
9823;SDS011;4951;50.778;7.196;2023-07-31T00:28:46;6.63;;;3.30;;
9823;SDS011;4951;50.778;7.196;2023-07-31T00:31:17;5.00;;;3.37;;
9823;SDS011;4951;50.778;7.196;2023-07-31T00:33:47;6.53;;;3.07;;
9823;SDS011;4951;50.778;7.196;2023-07-31T00:36:14;5.37;;;3.27;;
9823;SDS011;4951;50.778;7.196;2023-07-31T00:38:43;5.77;;;2.97;;
9823;SDS011;4951;50.778;7.196;2023-07-31T00:41:10;5.67;;;3.20;;
9823;SDS011;4951;50.778;7.196;2023-07-31T00:43:38;4.93;;;3.07;;
9823;SDS011;4951;50.778;7.196;2023-07-31T00:46:06;4.60;;;3.00;;
9823;SDS011;4951;50.778;7.196;2023-07-31T00:48:36;5.30;;;3.07;;
9823;SDS011;4951;50.778;7.196;2023-07-31T00:51:05;3.63;;;2.80;;
9823;SDS011;4951;50.778;7.196;2023-07-31T00:53:36;4.23;;;2.87;;
9823;SDS011;4951;50.778;7.196;2023-07-31T00:56:05;4.13;;;2.80;;
9823;SDS011;4951;50.778;7.196;2023-07-31T00:58:34;4.33;;;3.07;;
9823;SDS011;4951;50.778;7.196;2023-07-31T01:01:02;4.73;;;2.70;;
9823;SDS011;4951;50.778;7.196;2023-07-31T01:03:31;6.00;;;3.10;;
9823;SDS011;4951;50.778;7.196;2023-07-31T01:06:07;5.03;;;2.70;;
9823;SDS011;4951;50.778;7.196;2023-07-31T01:08:49;4.97;;;2.83;;
9823;SDS011;4951;50.778;7.196;2023-07-31T01:11:27;4.27;;;2.97;;
9823;SDS011;4951;50.778;7.196;2023-07-31T01:13:57;3.40;;;2.53;;
9823;SDS011;4951;50.778;7.196;2023-07-31T01:16:30;3.50;;;2.57;;
9823;SDS011;4951;50.778;7.196;2023-07-31T01:18:59;3.00;;;2.30;;
9823;SDS011;4951;50.778;7.196;2023-07-31T01:21:34;4.13;;;2.80;;
9823;SDS011;4951;50.778;7.196;2023-07-31T01:24:20;6.83;;;2.80;;
9823;SDS011;4951;50.778;7.196;2023-07-31T01:26:52;3.90;;;2.97;;
9823;SDS011;4951;50.778;7.196;2023-07-31T01:29:24;4.40;;;2.60;;
9823;SDS011;4951;50.778;7.196;2023-07-31T01:31:57;3.23;;;2.57;;
9823;SDS011;4951;50.778;7.196;2023-07-31T01:34:30;3.50;;;2.60;;
9823;SDS011;4951;50.778;7.196;2023-07-31T01:36:57;4.13;;;2.80;;
9823;SDS011;4951;50.778;7.196;2023-07-31T01:39:26;4.40;;;2.77;;
9823;SDS011;4951;50.778;7.196;2023-07-31T01:41:56;3.73;;;2.30;;
9823;SDS011;4951;50.778;7.196;2023-07-31T01:44:23;4.13;;;2.70;;
9823;SDS011;4951;50.778;7.196;2023-07-31T01:46:53;4.10;;;2.80;;
9823;SDS011;4951;50.778;7.196;2023-07-31T01:49:20;3.83;;;2.53;;
9823;SDS011;4951;50.778;7.196;2023-07-31T01:51:48;3.63;;;2.50;;
9823;SDS011;4951;50.778;7.196;2023-07-31T01:54:15;4.90;;;2.57;;
9823;SDS011;4951;50.778;7.196;2023-07-31T01:56:43;4.43;;;2.87;;
9823;SDS011;4951;50.778;7.196;2023-07-31T01:59:13;4.33;;;2.57;;
9823;SDS011;4951;50.778;7.196;2023-07-31T02:01:40;3.83;;;2.70;;
9823;SDS011;4951;50.778;7.196;2023-07-31T02:04:08;4.07;;;2.60;;
9823;SDS011;4951;50.778;7.196;2023-07-31T02:06:38;3.10;;;2.80;;
9823;SDS011;4951;50.778;7.196;2023-07-31T02:09:08;4.57;;;2.73;;
9823;SDS011;4951;50.778;7.196;2023-07-31T02:11:36;4.03;;;2.50;;
9823;SDS011;4951;50.778;7.196;2023-07-31T02:14:06;5.83;;;2.70;;
9823;SDS011;4951;50.778;7.196;2023-07-31T02:16:34;4.13;;;2.97;;
9823;SDS011;4951;50.778;7.196;2023-07-31T02:19:02;5.00;;;2.80;;
9823;SDS011;4951;50.778;7.196;2023-07-31T02:21:30;4.17;;;3.10;;
9823;SDS011;4951;50.778;7.196;2023-07-31T02:23:58;4.40;;;2.97;;
9823;SDS011;4951;50.778;7.196;2023-07-31T02:26:28;4.03;;;2.80;;
9823;SDS011;4951;50.778;7.196;2023-07-31T02:28:55;5.07;;;2.93;;
9823;SDS011;4951;50.778;7.196;2023-07-31T02:31:23;3.73;;;2.70;;
9823;SDS011;4951;50.778;7.196;2023-07-31T02:33:53;4.70;;;2.80;;
9823;SDS011;4951;50.778;7.196;2023-07-31T02:36:20;5.00;;;3.10;;
9823;SDS011;4951;50.778;7.196;2023-07-31T02:38:48;5.03;;;3.03;;
9823;SDS011;4951;50.778;7.196;2023-07-31T02:41:15;5.40;;;3.13;;
9823;SDS011;4951;50.778;7.196;2023-07-31T02:43:42;3.77;;;2.70;;
9823;SDS011;4951;50.778;7.196;2023-07-31T02:46:10;5.17;;;3.20;;
9823;SDS011;4951;50.778;7.196;2023-07-31T02:48:37;4.60;;;3.23;;
9823;SDS011;4951;50.778;7.196;2023-07-31T02:51:06;5.67;;;3.10;;
9823;SDS011;4951;50.778;7.196;2023-07-31T02:53:35;5.10;;;3.00;;
9823;SDS011;4951;50.778;7.196;2023-07-31T02:56:03;8.30;;;3.57;;
9823;SDS011;4951;50.778;7.196;2023-07-31T02:58:31;4.53;;;3.00;;
9823;SDS011;4951;50.778;7.196;2023-07-31T03:00:59;4.67;;;3.10;;
9823;SDS011;4951;50.778;7.196;2023-07-31T03:03:26;7.50;;;3.30;;
9823;SDS011;4951;50.778;7.196;2023-07-31T03:05:53;4.43;;;2.90;;
9823;SDS011;4951;50.778;7.196;2023-07-31T03:08:22;6.57;;;3.40;;
9823;SDS011;4951;50.778;7.196;2023-07-31T03:10:49;6.40;;;3.50;;
9823;SDS011;4951;50.778;7.196;2023-07-31T03:13:16;4.87;;;3.17;;
9823;SDS011;4951;50.778;7.196;2023-07-31T03:15:47;5.40;;;3.40;;
9823;SDS011;4951;50.778;7.196;2023-07-31T03:18:15;6.13;;;3.50;;
9823;SDS011;4951;50.778;7.196;2023-07-31T03:20:42;4.63;;;3.33;;
9823;SDS011;4951;50.778;7.196;2023-07-31T03:23:10;5.07;;;3.37;;
9823;SDS011;4951;50.778;7.196;2023-07-31T03:25:41;6.97;;;3.50;;
9823;SDS011;4951;50.778;7.196;2023-07-31T03:28:21;5.80;;;3.00;;
9823;SDS011;4951;50.778;7.196;2023-07-31T03:30:48;7.57;;;3.43;;
9823;SDS011;4951;50.778;7.196;2023-07-31T03:33:17;6.20;;;3.60;;
9823;SDS011;4951;50.778;7.196;2023-07-31T03:35:44;6.80;;;3.37;;
9823;SDS011;4951;50.778;7.196;2023-07-31T03:38:12;5.63;;;3.10;;
9823;SDS011;4951;50.778;7.196;2023-07-31T03:40:41;6.65;;;3.53;;
9823;SDS011;4951;50.778;7.196;2023-07-31T03:43:08;4.97;;;3.30;;
9823;SDS011;4951;50.778;7.196;2023-07-31T03:45:39;6.67;;;3.50;;
9823;SDS011;4951;50.778;7.196;2023-07-31T03:48:06;5.57;;;3.60;;
9823;SDS011;4951;50.778;7.196;2023-07-31T03:50:34;7.37;;;3.63;;
9823;SDS011;4951;50.778;7.196;2023-07-31T03:53:01;5.10;;;3.27;;
9823;SDS011;4951;50.778;7.196;2023-07-31T03:55:30;7.90;;;3.53;;
9823;SDS011;4951;50.778;7.196;2023-07-31T03:57:59;5.03;;;3.17;;
9823;SDS011;4951;50.778;7.196;2023-07-31T04:00:26;11.20;;;3.43;;
9823;SDS011;4951;50.778;7.196;2023-07-31T04:02:54;6.10;;;3.20;;
9823;SDS011;4951;50.778;7.196;2023-07-31T04:05:22;5.30;;;3.30;;
9823;SDS011;4951;50.778;7.196;2023-07-31T04:07:51;4.27;;;3.00;;
9823;SDS011;4951;50.778;7.196;2023-07-31T04:10:18;5.67;;;3.30;;
9823;SDS011;4951;50.778;7.196;2023-07-31T04:12:46;4.77;;;2.93;;
9823;SDS011;4951;50.778;7.196;2023-07-31T04:15:15;5.00;;;3.00;;
9823;SDS011;4951;50.778;7.196;2023-07-31T04:17:44;6.37;;;3.30;;
9823;SDS011;4951;50.778;7.196;2023-07-31T04:20:15;4.33;;;3.10;;
9823;SDS011;4951;50.778;7.196;2023-07-31T04:22:42;7.67;;;3.63;;
9823;SDS011;4951;50.778;7.196;2023-07-31T04:25:11;5.90;;;3.47;;
9823;SDS011;4951;50.778;7.196;2023-07-31T04:27:43;4.70;;;3.30;;
9823;SDS011;4951;50.778;7.196;2023-07-31T04:30:10;5.40;;;3.40;;
9823;SDS011;4951;50.778;7.196;2023-07-31T04:32:39;3.60;;;3.17;;
9823;SDS011;4951;50.778;7.196;2023-07-31T04:35:07;5.20;;;3.40;;
9823;SDS011;4951;50.778;7.196;2023-07-31T04:37:34;5.73;;;3.43;;
9823;SDS011;4951;50.778;7.196;2023-07-31T04:40:01;8.60;;;3.67;;
9823;SDS011;4951;50.778;7.196;2023-07-31T04:42:28;5.17;;;3.30;;
9823;SDS011;4951;50.778;7.196;2023-07-31T04:44:55;5.60;;;4.10;;
9823;SDS011;4951;50.778;7.196;2023-07-31T04:47:23;5.67;;;3.50;;
9823;SDS011;4951;50.778;7.196;2023-07-31T04:49:55;4.97;;;3.37;;
9823;SDS011;4951;50.778;7.196;2023-07-31T04:52:22;6.43;;;3.43;;
9823;SDS011;4951;50.778;7.196;2023-07-31T04:54:49;5.67;;;3.63;;
9823;SDS011;4951;50.778;7.196;2023-07-31T04:57:17;7.10;;;3.50;;
9823;SDS011;4951;50.778;7.196;2023-07-31T04:59:44;4.00;;;3.20;;
9823;SDS011;4951;50.778;7.196;2023-07-31T05:02:13;5.27;;;3.33;;
9823;SDS011;4951;50.778;7.196;2023-07-31T05:04:41;5.30;;;3.47;;
9823;SDS011;4951;50.778;7.196;2023-07-31T05:07:10;5.68;;;3.22;;
9823;SDS011;4951;50.778;7.196;2023-07-31T05:09:37;4.07;;;3.20;;
9823;SDS011;4951;50.778;7.196;2023-07-31T05:12:06;7.30;;;3.40;;
9823;SDS011;4951;50.778;7.196;2023-07-31T05:14:36;4.70;;;3.30;;
9823;SDS011;4951;50.778;7.196;2023-07-31T05:17:03;4.70;;;3.30;;
9823;SDS011;4951;50.778;7.196;2023-07-31T05:19:32;6.73;;;3.77;;
9823;SDS011;4951;50.778;7.196;2023-07-31T05:21:59;4.57;;;3.43;;
9823;SDS011;4951;50.778;7.196;2023-07-31T05:24:31;5.13;;;3.50;;
9823;SDS011;4951;50.778;7.196;2023-07-31T05:26:59;4.33;;;3.13;;
9823;SDS011;4951;50.778;7.196;2023-07-31T05:29:26;5.03;;;3.33;;
9823;SDS011;4951;50.778;7.196;2023-07-31T05:31:53;4.10;;;3.10;;
9823;SDS011;4951;50.778;7.196;2023-07-31T05:34:22;6.10;;;3.47;;
9823;SDS011;4951;50.778;7.196;2023-07-31T05:36:51;6.70;;;3.75;;
9823;SDS011;4951;50.778;7.196;2023-07-31T05:39:21;5.03;;;3.53;;
9823;SDS011;4951;50.778;7.196;2023-07-31T05:41:49;4.93;;;3.53;;
9823;SDS011;4951;50.778;7.196;2023-07-31T05:44:17;4.13;;;3.17;;
9823;SDS011;4951;50.778;7.196;2023-07-31T05:46:45;5.63;;;3.45;;
9823;SDS011;4951;50.778;7.196;2023-07-31T05:49:12;5.32;;;3.42;;
9823;SDS011;4951;50.778;7.196;2023-07-31T05:51:40;4.67;;;3.23;;
9823;SDS011;4951;50.778;7.196;2023-07-31T05:54:07;5.90;;;3.43;;
9823;SDS011;4951;50.778;7.196;2023-07-31T05:56:36;4.20;;;3.40;;
9823;SDS011;4951;50.778;7.196;2023-07-31T05:59:05;8.85;;;3.60;;
9823;SDS011;4951;50.778;7.196;2023-07-31T06:01:33;4.40;;;2.97;;
9823;SDS011;4951;50.778;7.196;2023-07-31T06:04:05;5.20;;;3.33;;
9823;SDS011;4951;50.778;7.196;2023-07-31T06:06:32;3.90;;;3.07;;
9823;SDS011;4951;50.778;7.196;2023-07-31T06:09:01;4.67;;;3.20;;
9823;SDS011;4951;50.778;7.196;2023-07-31T06:11:29;4.00;;;3.07;;
9823;SDS011;4951;50.778;7.196;2023-07-31T06:13:56;4.03;;;3.13;;
9823;SDS011;4951;50.778;7.196;2023-07-31T06:16:25;4.30;;;3.35;;
9823;SDS011;4951;50.778;7.196;2023-07-31T06:18:52;4.55;;;3.40;;
9823;SDS011;4951;50.778;7.196;2023-07-31T06:21:20;4.88;;;3.30;;
9823;SDS011;4951;50.778;7.196;2023-07-31T06:23:48;6.00;;;3.60;;
9823;SDS011;4951;50.778;7.196;2023-07-31T06:26:16;6.03;;;3.20;;
9823;SDS011;4951;50.778;7.196;2023-07-31T06:28:43;4.10;;;3.40;;
9823;SDS011;4951;50.778;7.196;2023-07-31T06:31:10;5.68;;;3.20;;
9823;SDS011;4951;50.778;7.196;2023-07-31T06:33:38;5.72;;;3.45;;
9823;SDS011;4951;50.778;7.196;2023-07-31T06:36:06;6.00;;;3.90;;
9823;SDS011;4951;50.778;7.196;2023-07-31T06:38:33;4.73;;;3.57;;
9823;SDS011;4951;50.778;7.196;2023-07-31T06:41:00;5.83;;;3.70;;
9823;SDS011;4951;50.778;7.196;2023-07-31T06:43:28;6.17;;;4.00;;
9823;SDS011;4951;50.778;7.196;2023-07-31T06:45:55;4.70;;;3.70;;
9823;SDS011;4951;50.778;7.196;2023-07-31T06:48:22;4.80;;;3.87;;
9823;SDS011;4951;50.778;7.196;2023-07-31T06:50:51;6.25;;;4.05;;
9823;SDS011;4951;50.778;7.196;2023-07-31T06:53:18;6.13;;;4.50;;
9823;SDS011;4951;50.778;7.196;2023-07-31T06:55:45;7.00;;;3.80;;
9823;SDS011;4951;50.778;7.196;2023-07-31T06:58:13;4.57;;;3.63;;
9823;SDS011;4951;50.778;7.196;2023-07-31T07:00:40;5.30;;;3.90;;
9823;SDS011;4951;50.778;7.196;2023-07-31T07:03:08;6.43;;;3.60;;
9823;SDS011;4951;50.778;7.196;2023-07-31T07:05:35;6.60;;;4.03;;
9823;SDS011;4951;50.778;7.196;2023-07-31T07:08:04;4.80;;;4.27;;
9823;SDS011;4951;50.778;7.196;2023-07-31T07:10:31;6.20;;;4.10;;
9823;SDS011;4951;50.778;7.196;2023-07-31T07:12:59;6.43;;;4.10;;
9823;SDS011;4951;50.778;7.196;2023-07-31T07:15:29;6.23;;;4.57;;
9823;SDS011;4951;50.778;7.196;2023-07-31T07:17:58;5.53;;;4.07;;
9823;SDS011;4951;50.778;7.196;2023-07-31T07:20:25;5.60;;;3.83;;
9823;SDS011;4951;50.778;7.196;2023-07-31T07:22:53;6.60;;;4.40;;
9823;SDS011;4951;50.778;7.196;2023-07-31T07:25:24;4.70;;;3.77;;
9823;SDS011;4951;50.778;7.196;2023-07-31T07:27:53;5.18;;;3.83;;
9823;SDS011;4951;50.778;7.196;2023-07-31T07:30:20;5.45;;;3.80;;
9823;SDS011;4951;50.778;7.196;2023-07-31T07:32:49;7.80;;;4.05;;
9823;SDS011;4951;50.778;7.196;2023-07-31T07:35:16;6.93;;;3.70;;
9823;SDS011;4951;50.778;7.196;2023-07-31T07:37:44;7.05;;;3.70;;
9823;SDS011;4951;50.778;7.196;2023-07-31T07:40:11;5.32;;;3.50;;
9823;SDS011;4951;50.778;7.196;2023-07-31T07:42:40;7.63;;;4.32;;
9823;SDS011;4951;50.778;7.196;2023-07-31T07:45:07;8.02;;;3.83;;
9823;SDS011;4951;50.778;7.196;2023-07-31T07:47:35;6.18;;;3.97;;
9823;SDS011;4951;50.778;7.196;2023-07-31T07:50:02;7.85;;;4.28;;
9823;SDS011;4951;50.778;7.196;2023-07-31T07:52:33;6.80;;;4.05;;
9823;SDS011;4951;50.778;7.196;2023-07-31T07:55:03;6.22;;;4.20;;
9823;SDS011;4951;50.778;7.196;2023-07-31T07:57:30;8.80;;;4.43;;
9823;SDS011;4951;50.778;7.196;2023-07-31T07:59:59;7.20;;;4.17;;
9823;SDS011;4951;50.778;7.196;2023-07-31T08:02:40;7.90;;;4.57;;
9823;SDS011;4951;50.778;7.196;2023-07-31T08:05:18;8.35;;;4.30;;
9823;SDS011;4951;50.778;7.196;2023-07-31T08:07:45;9.30;;;4.27;;
9823;SDS011;4951;50.778;7.196;2023-07-31T08:10:14;7.50;;;4.03;;
9823;SDS011;4951;50.778;7.196;2023-07-31T08:15:42;5.57;;;3.87;;
9823;SDS011;4951;50.778;7.196;2023-07-31T08:18:12;6.27;;;4.30;;
9823;SDS011;4951;50.778;7.196;2023-07-31T08:21:03;7.83;;;4.60;;
9823;SDS011;4951;50.778;7.196;2023-07-31T08:23:54;6.37;;;4.40;;
9823;SDS011;4951;50.778;7.196;2023-07-31T08:26:31;5.97;;;4.43;;
9823;SDS011;4951;50.778;7.196;2023-07-31T08:28:58;6.87;;;4.13;;
9823;SDS011;4951;50.778;7.196;2023-07-31T08:31:31;6.00;;;4.50;;
9823;SDS011;4951;50.778;7.196;2023-07-31T08:33:58;6.13;;;4.70;;
9823;SDS011;4951;50.778;7.196;2023-07-31T08:36:33;6.03;;;4.17;;
9823;SDS011;4951;50.778;7.196;2023-07-31T08:39:19;6.80;;;4.07;;
9823;SDS011;4951;50.778;7.196;2023-07-31T08:41:57;4.90;;;3.70;;
9823;SDS011;4951;50.778;7.196;2023-07-31T08:44:29;6.83;;;3.87;;
9823;SDS011;4951;50.778;7.196;2023-07-31T08:47:12;7.53;;;4.00;;
9823;SDS011;4951;50.778;7.196;2023-07-31T08:49:43;6.57;;;3.83;;
9823;SDS011;4951;50.778;7.196;2023-07-31T08:52:49;6.13;;;4.17;;
9823;SDS011;4951;50.778;7.196;2023-07-31T08:55:22;4.20;;;3.47;;
9823;SDS011;4951;50.778;7.196;2023-07-31T08:57:59;7.25;;;3.97;;
9823;SDS011;4951;50.778;7.196;2023-07-31T09:00:34;6.17;;;4.07;;
9823;SDS011;4951;50.778;7.196;2023-07-31T09:03:44;5.37;;;3.20;;
9823;SDS011;4951;50.778;7.196;2023-07-31T09:06:28;4.40;;;3.73;;
9823;SDS011;4951;50.778;7.196;2023-07-31T09:08:59;5.77;;;3.77;;
9823;SDS011;4951;50.778;7.196;2023-07-31T09:11:34;7.17;;;4.07;;
9823;SDS011;4951;50.778;7.196;2023-07-31T09:14:04;5.90;;;4.13;;
9823;SDS011;4951;50.778;7.196;2023-07-31T09:16:36;6.90;;;3.90;;
9823;SDS011;4951;50.778;7.196;2023-07-31T09:19:32;7.87;;;4.00;;
9823;SDS011;4951;50.778;7.196;2023-07-31T09:22:06;6.07;;;4.10;;
9823;SDS011;4951;50.778;7.196;2023-07-31T09:24:35;8.97;;;4.43;;
9823;SDS011;4951;50.778;7.196;2023-07-31T09:27:06;8.48;;;5.10;;
9823;SDS011;4951;50.778;7.196;2023-07-31T09:29:45;6.73;;;4.70;;
9823;SDS011;4951;50.778;7.196;2023-07-31T09:32:42;7.20;;;4.23;;
9823;SDS011;4951;50.778;7.196;2023-07-31T09:35:28;7.20;;;4.30;;
9823;SDS011;4951;50.778;7.196;2023-07-31T09:38:09;11.93;;;5.43;;
9823;SDS011;4951;50.778;7.196;2023-07-31T09:40:37;7.33;;;4.17;;
9823;SDS011;4951;50.778;7.196;2023-07-31T09:43:07;6.95;;;4.35;;
9823;SDS011;4951;50.778;7.196;2023-07-31T09:45:55;6.27;;;4.10;;
9823;SDS011;4951;50.778;7.196;2023-07-31T09:48:28;6.87;;;3.93;;
9823;SDS011;4951;50.778;7.196;2023-07-31T09:51:01;5.63;;;4.20;;
9823;SDS011;4951;50.778;7.196;2023-07-31T09:53:31;6.43;;;4.55;;
9823;SDS011;4951;50.778;7.196;2023-07-31T09:56:33;5.17;;;4.27;;
9823;SDS011;4951;50.778;7.196;2023-07-31T09:59:17;5.73;;;3.90;;
9823;SDS011;4951;50.778;7.196;2023-07-31T10:01:59;6.63;;;3.97;;
9823;SDS011;4951;50.778;7.196;2023-07-31T10:04:29;9.57;;;4.38;;
9823;SDS011;4951;50.778;7.196;2023-07-31T10:07:18;6.50;;;3.80;;
9823;SDS011;4951;50.778;7.196;2023-07-31T10:09:56;5.60;;;3.60;;
9823;SDS011;4951;50.778;7.196;2023-07-31T10:12:48;6.77;;;3.53;;
9823;SDS011;4951;50.778;7.196;2023-07-31T10:15:38;5.43;;;3.50;;
9823;SDS011;4951;50.778;7.196;2023-07-31T10:18:19;6.47;;;3.40;;
9823;SDS011;4951;50.778;7.196;2023-07-31T10:20:53;5.47;;;3.57;;
9823;SDS011;4951;50.778;7.196;2023-07-31T10:23:32;7.37;;;3.50;;
9823;SDS011;4951;50.778;7.196;2023-07-31T10:26:03;7.18;;;3.75;;
9823;SDS011;4951;50.778;7.196;2023-07-31T10:28:35;5.70;;;3.80;;
9823;SDS011;4951;50.778;7.196;2023-07-31T10:31:20;5.43;;;3.60;;
9823;SDS011;4951;50.778;7.196;2023-07-31T10:33:51;6.35;;;3.45;;
9823;SDS011;4951;50.778;7.196;2023-07-31T10:36:25;4.72;;;3.38;;
9823;SDS011;4951;50.778;7.196;2023-07-31T10:39:34;9.35;;;3.67;;
9823;SDS011;4951;50.778;7.196;2023-07-31T10:42:14;4.67;;;3.47;;
9823;SDS011;4951;50.778;7.196;2023-07-31T10:44:46;6.22;;;3.50;;
9823;SDS011;4951;50.778;7.196;2023-07-31T10:47:25;4.55;;;3.50;;
9823;SDS011;4951;50.778;7.196;2023-07-31T10:50:11;4.82;;;3.08;;
9823;SDS011;4951;50.778;7.196;2023-07-31T10:53:06;5.22;;;2.95;;
9823;SDS011;4951;50.778;7.196;2023-07-31T10:56:01;4.20;;;3.03;;
9823;SDS011;4951;50.778;7.196;2023-07-31T10:58:46;4.28;;;2.70;;
9823;SDS011;4951;50.778;7.196;2023-07-31T11:01:55;3.35;;;3.00;;
9823;SDS011;4951;50.778;7.196;2023-07-31T11:04:27;5.18;;;3.10;;
9823;SDS011;4951;50.778;7.196;2023-07-31T11:07:10;5.47;;;2.95;;
9823;SDS011;4951;50.778;7.196;2023-07-31T11:09:50;8.30;;;3.47;;
9823;SDS011;4951;50.778;7.196;2023-07-31T11:12:20;5.78;;;2.70;;
9823;SDS011;4951;50.778;7.196;2023-07-31T11:14:56;2.95;;;2.65;;
9823;SDS011;4951;50.778;7.196;2023-07-31T11:17:38;3.20;;;2.28;;
9823;SDS011;4951;50.778;7.196;2023-07-31T11:20:10;2.75;;;2.08;;
9823;SDS011;4951;50.778;7.196;2023-07-31T11:22:53;3.25;;;1.90;;
9823;SDS011;4951;50.778;7.196;2023-07-31T11:25:34;3.65;;;1.75;;
9823;SDS011;4951;50.778;7.196;2023-07-31T11:28:24;2.38;;;1.75;;
9823;SDS011;4951;50.778;7.196;2023-07-31T11:31:26;2.67;;;2.05;;
9823;SDS011;4951;50.778;7.196;2023-07-31T11:34:06;2.85;;;1.70;;
9823;SDS011;4951;50.778;7.196;2023-07-31T11:37:18;2.25;;;1.90;;
9823;SDS011;4951;50.778;7.196;2023-07-31T11:39:58;3.20;;;2.25;;
9823;SDS011;4951;50.778;7.196;2023-07-31T11:42:28;3.63;;;2.10;;
9823;SDS011;4951;50.778;7.196;2023-07-31T11:47:51;2.45;;;1.70;;
9823;SDS011;4951;50.778;7.196;2023-07-31T11:50:34;2.40;;;1.80;;
9823;SDS011;4951;50.778;7.196;2023-07-31T11:53:06;2.65;;;1.70;;
9823;SDS011;4951;50.778;7.196;2023-07-31T11:55:41;1.67;;;1.50;;
9823;SDS011;4951;50.778;7.196;2023-07-31T11:59:16;4.88;;;1.65;;
9823;SDS011;4951;50.778;7.196;2023-07-31T12:01:46;3.25;;;1.60;;
9823;SDS011;4951;50.778;7.196;2023-07-31T12:04:19;1.70;;;1.60;;
9823;SDS011;4951;50.778;7.196;2023-07-31T12:06:48;2.45;;;1.50;;
9823;SDS011;4951;50.778;7.196;2023-07-31T12:09:38;3.13;;;1.85;;
9823;SDS011;4951;50.778;7.196;2023-07-31T12:12:19;1.90;;;1.60;;
9823;SDS011;4951;50.778;7.196;2023-07-31T12:14:50;8.73;;;2.72;;
9823;SDS011;4951;50.778;7.196;2023-07-31T12:20:07;3.35;;;1.70;;
9823;SDS011;4951;50.778;7.196;2023-07-31T12:22:39;2.33;;;1.80;;
9823;SDS011;4951;50.778;7.196;2023-07-31T12:25:28;1.60;;;1.50;;
9823;SDS011;4951;50.778;7.196;2023-07-31T12:27:56;1.85;;;1.67;;
9823;SDS011;4951;50.778;7.196;2023-07-31T12:31:40;3.20;;;1.75;;
9823;SDS011;4951;50.778;7.196;2023-07-31T12:34:14;1.83;;;1.60;;
9823;SDS011;4951;50.778;7.196;2023-07-31T12:37:14;2.35;;;2.00;;
9823;SDS011;4951;50.778;7.196;2023-07-31T12:39:36;2.30;;;2.10;;
9823;SDS011;4951;50.778;7.196;2023-07-31T12:48:15;3.50;;;2.47;;
9823;SDS011;4951;50.778;7.196;2023-07-31T12:53:54;3.78;;;2.80;;
9823;SDS011;4951;50.778;7.196;2023-07-31T12:56:31;4.10;;;3.22;;
9823;SDS011;4951;50.778;7.196;2023-07-31T12:59:19;3.97;;;3.08;;
9823;SDS011;4951;50.778;7.196;2023-07-31T13:02:03;4.35;;;3.00;;
9823;SDS011;4951;50.778;7.196;2023-07-31T13:04:33;4.32;;;3.22;;
9823;SDS011;4951;50.778;7.196;2023-07-31T13:07:16;5.10;;;3.58;;
9823;SDS011;4951;50.778;7.196;2023-07-31T13:09:44;3.92;;;3.22;;
9823;SDS011;4951;50.778;7.196;2023-07-31T13:12:26;3.28;;;2.97;;
9823;SDS011;4951;50.778;7.196;2023-07-31T13:15:31;3.88;;;3.40;;
9823;SDS011;4951;50.778;7.196;2023-07-31T13:17:59;5.00;;;3.30;;
9823;SDS011;4951;50.778;7.196;2023-07-31T13:20:31;4.22;;;3.50;;
9823;SDS011;4951;50.778;7.196;2023-07-31T13:23:12;3.67;;;3.30;;
9823;SDS011;4951;50.778;7.196;2023-07-31T13:25:39;4.45;;;3.38;;
9823;SDS011;4951;50.778;7.196;2023-07-31T13:31:40;3.60;;;3.30;;
9823;SDS011;4951;50.778;7.196;2023-07-31T13:34:31;3.25;;;2.95;;
9823;SDS011;4951;50.778;7.196;2023-07-31T13:37:40;4.93;;;3.38;;
9823;SDS011;4951;50.778;7.196;2023-07-31T13:43:07;3.22;;;2.92;;
9823;SDS011;4951;50.778;7.196;2023-07-31T13:49:15;3.28;;;2.97;;
9823;SDS011;4951;50.778;7.196;2023-07-31T13:52:06;3.22;;;2.72;;
9823;SDS011;4951;50.778;7.196;2023-07-31T13:54:35;2.35;;;2.15;;
9823;SDS011;4951;50.778;7.196;2023-07-31T13:57:03;2.60;;;2.38;;
9823;SDS011;4951;50.778;7.196;2023-07-31T13:59:33;3.13;;;2.50;;
9823;SDS011;4951;50.778;7.196;2023-07-31T14:02:08;2.83;;;2.40;;
9823;SDS011;4951;50.778;7.196;2023-07-31T14:04:46;2.25;;;2.05;;
9823;SDS011;4951;50.778;7.196;2023-07-31T14:07:14;3.00;;;2.38;;
9823;SDS011;4951;50.778;7.196;2023-07-31T14:09:47;3.40;;;2.30;;
9823;SDS011;4951;50.778;7.196;2023-07-31T14:12:18;2.65;;;2.45;;
9823;SDS011;4951;50.778;7.196;2023-07-31T14:15:11;2.47;;;2.03;;
9823;SDS011;4951;50.778;7.196;2023-07-31T14:17:51;2.47;;;2.28;;
9823;SDS011;4951;50.778;7.196;2023-07-31T14:20:26;2.55;;;2.28;;
9823;SDS011;4951;50.778;7.196;2023-07-31T14:23:15;2.50;;;2.30;;
9823;SDS011;4951;50.778;7.196;2023-07-31T14:25:45;2.67;;;2.40;;
9823;SDS011;4951;50.778;7.196;2023-07-31T14:31:28;4.50;;;3.53;;
9823;SDS011;4951;50.778;7.196;2023-07-31T14:34:00;3.63;;;2.55;;
9823;SDS011;4951;50.778;7.196;2023-07-31T14:36:45;2.50;;;2.30;;
9823;SDS011;4951;50.778;7.196;2023-07-31T14:39:55;2.72;;;2.50;;
9823;SDS011;4951;50.778;7.196;2023-07-31T14:42:22;2.13;;;1.92;;
9823;SDS011;4951;50.778;7.196;2023-07-31T14:48:12;3.55;;;2.28;;
9823;SDS011;4951;50.778;7.196;2023-07-31T14:50:44;2.22;;;1.90;;
9823;SDS011;4951;50.778;7.196;2023-07-31T14:53:29;2.15;;;1.95;;
9823;SDS011;4951;50.778;7.196;2023-07-31T14:56:38;2.67;;;2.10;;
9823;SDS011;4951;50.778;7.196;2023-07-31T15:02:43;2.95;;;2.45;;
9823;SDS011;4951;50.778;7.196;2023-07-31T15:05:33;3.80;;;2.25;;
9823;SDS011;4951;50.778;7.196;2023-07-31T15:08:01;3.08;;;2.17;;
9823;SDS011;4951;50.778;7.196;2023-07-31T15:10:39;3.95;;;2.08;;
9823;SDS011;4951;50.778;7.196;2023-07-31T15:13:06;2.55;;;2.35;;
9823;SDS011;4951;50.778;7.196;2023-07-31T15:15:38;2.78;;;2.47;;
9823;SDS011;4951;50.778;7.196;2023-07-31T15:18:19;2.78;;;2.28;;
9823;SDS011;4951;50.778;7.196;2023-07-31T15:21:23;2.75;;;2.28;;
9823;SDS011;4951;50.778;7.196;2023-07-31T15:24:00;2.50;;;2.30;;
9823;SDS011;4951;50.778;7.196;2023-07-31T15:26:30;2.88;;;2.35;;
9823;SDS011;4951;50.778;7.196;2023-07-31T15:29:17;2.90;;;2.10;;
9823;SDS011;4951;50.778;7.196;2023-07-31T15:31:44;2.50;;;2.20;;
9823;SDS011;4951;50.778;7.196;2023-07-31T15:34:15;2.20;;;2.00;;
9823;SDS011;4951;50.778;7.196;2023-07-31T15:36:49;2.30;;;2.00;;
9823;SDS011;4951;50.778;7.196;2023-07-31T15:39:29;2.55;;;2.22;;
9823;SDS011;4951;50.778;7.196;2023-07-31T15:42:07;2.28;;;2.08;;
9823;SDS011;4951;50.778;7.196;2023-07-31T15:44:39;3.20;;;2.22;;
9823;SDS011;4951;50.778;7.196;2023-07-31T15:47:17;2.30;;;2.10;;
9823;SDS011;4951;50.778;7.196;2023-07-31T15:49:50;2.63;;;2.10;;
9823;SDS011;4951;50.778;7.196;2023-07-31T15:52:20;2.55;;;2.35;;
9823;SDS011;4951;50.778;7.196;2023-07-31T15:54:48;2.45;;;2.15;;
9823;SDS011;4951;50.778;7.196;2023-07-31T15:57:16;2.55;;;2.00;;
9823;SDS011;4951;50.778;7.196;2023-07-31T16:00:21;2.95;;;2.35;;
9823;SDS011;4951;50.778;7.196;2023-07-31T16:02:58;3.00;;;2.70;;
9823;SDS011;4951;50.778;7.196;2023-07-31T16:05:57;3.20;;;2.72;;
9823;SDS011;4951;50.778;7.196;2023-07-31T16:08:58;3.15;;;2.85;;
9823;SDS011;4951;50.778;7.196;2023-07-31T16:11:33;3.22;;;2.67;;
9823;SDS011;4951;50.778;7.196;2023-07-31T16:14:01;2.67;;;2.40;;
9823;SDS011;4951;50.778;7.196;2023-07-31T16:16:58;3.47;;;2.83;;
9823;SDS011;4951;50.778;7.196;2023-07-31T16:19:35;2.92;;;2.55;;
9823;SDS011;4951;50.778;7.196;2023-07-31T16:22:04;2.95;;;2.70;;
9823;SDS011;4951;50.778;7.196;2023-07-31T16:24:34;2.70;;;2.50;;
9823;SDS011;4951;50.778;7.196;2023-07-31T16:27:08;3.70;;;2.80;;
9823;SDS011;4951;50.778;7.196;2023-07-31T16:29:37;4.35;;;3.17;;
9823;SDS011;4951;50.778;7.196;2023-07-31T16:32:07;4.40;;;3.35;;
9823;SDS011;4951;50.778;7.196;2023-07-31T16:34:41;8.68;;;3.88;;